createdAt,value
2018-06-03T00:02:24.328Z,74.95
2018-06-03T00:04:51.915Z,74.19
2018-06-03T00:07:19.532Z,74.25
2018-06-03T00:09:47.154Z,74.82
2018-06-03T00:12:14.732Z,74.65
2018-06-03T00:14:42.315Z,74.81
2018-06-03T00:17:09.932Z,75.18
2018-06-03T00:19:37.507Z,74.64
2018-06-03T00:22:06.019Z,74.77
2018-06-03T00:24:33.643Z,74.86
2018-06-03T00:27:01.385Z,74.91
2018-06-03T00:29:29.086Z,74.82
2018-06-03T00:31:56.793Z,74.90
2018-06-03T00:34:24.487Z,75.18
2018-06-03T00:36:52.126Z,74.82
2018-06-03T00:39:19.823Z,74.69
2018-06-03T00:41:47.507Z,74.38
2018-06-03T00:44:15.167Z,74.65
2018-06-03T00:46:42.868Z,74.78
2018-06-03T00:49:10.577Z,74.42
2018-06-03T00:51:38.259Z,74.23
2018-06-03T00:54:05.963Z,74.54
2018-06-03T00:56:39.227Z,74.63
2018-06-03T00:59:06.859Z,74.55
2018-06-03T01:01:34.532Z,74.52
2018-06-03T01:04:02.219Z,74.22
2018-06-03T01:06:29.944Z,74.51
2018-06-03T01:08:57.627Z,74.03
2018-06-03T01:11:25.405Z,74.00
2018-06-03T01:13:53.064Z,74.10
2018-06-03T01:16:20.737Z,74.25
2018-06-03T01:18:48.481Z,74.86
2018-06-03T01:21:16.168Z,74.56
2018-06-03T01:23:43.886Z,73.93
2018-06-03T01:26:11.588Z,74.42
2018-06-03T01:28:39.358Z,74.66
2018-06-03T01:31:07.227Z,74.88
2018-06-03T01:33:34.934Z,74.91
2018-06-03T01:36:02.590Z,74.74
2018-06-03T01:38:30.324Z,74.34
2018-06-03T01:40:58.018Z,74.69
2018-06-03T01:43:25.714Z,74.77
2018-06-03T01:45:53.424Z,74.07
2018-06-03T01:48:21.107Z,73.60
2018-06-03T01:50:48.768Z,74.61
2018-06-03T01:53:16.443Z,74.79
2018-06-03T01:55:44.162Z,74.66
2018-06-03T01:58:11.837Z,75.33
2018-06-03T02:00:39.743Z,75.61
2018-06-03T02:03:07.440Z,75.54
2018-06-03T02:05:35.098Z,74.07
2018-06-03T02:08:02.792Z,73.85
2018-06-03T02:10:30.475Z,74.74
2018-06-03T02:12:58.183Z,74.60
2018-06-03T02:15:25.886Z,75.26
2018-06-03T02:17:53.601Z,75.48
2018-06-03T02:20:21.376Z,75.83
2018-06-03T02:22:49.055Z,76.47
2018-06-03T02:25:16.833Z,76.30
2018-06-03T02:27:44.528Z,76.56
2018-06-03T02:30:12.228Z,77.29
2018-06-03T02:32:39.947Z,76.63
2018-06-03T02:35:07.607Z,76.54
2018-06-03T02:37:35.326Z,77.01
2018-06-03T02:40:03.091Z,76.86
2018-06-03T02:42:30.758Z,77.08
2018-06-03T02:44:58.466Z,76.64
2018-06-03T02:47:26.172Z,76.71
2018-06-03T02:49:53.867Z,76.08
2018-06-03T02:52:21.528Z,76.80
2018-06-03T02:54:49.263Z,76.94
2018-06-03T02:57:16.956Z,76.42
2018-06-03T02:59:44.680Z,76.33
2018-06-03T03:02:12.335Z,76.21
2018-06-03T03:04:40.011Z,76.48
2018-06-03T03:07:07.732Z,76.61
2018-06-03T03:09:35.392Z,76.91
2018-06-03T03:12:03.144Z,77.69
2018-06-03T03:14:30.793Z,77.52
2018-06-03T03:16:58.476Z,77.21
2018-06-03T03:19:26.140Z,77.51
2018-06-03T03:21:53.823Z,77.36
2018-06-03T03:24:21.492Z,76.92
2018-06-03T03:26:49.171Z,76.93
2018-06-03T03:29:16.839Z,77.34
2018-06-03T03:31:44.517Z,77.28
2018-06-03T03:34:12.225Z,76.83
2018-06-03T03:36:39.947Z,76.63
2018-06-03T03:39:07.602Z,77.01
2018-06-03T03:41:35.271Z,77.11
2018-06-03T03:44:02.982Z,77.40
2018-06-03T03:46:30.663Z,76.99
2018-06-03T03:48:58.339Z,76.81
2018-06-03T03:51:26.011Z,76.79
2018-06-03T03:53:53.692Z,76.62
2018-06-03T03:56:21.346Z,76.70
2018-06-03T03:58:49.015Z,76.55
2018-06-03T04:01:16.702Z,76.21
2018-06-03T04:03:44.410Z,76.60
2018-06-03T04:06:12.077Z,76.08
2018-06-03T04:08:39.845Z,75.93
2018-06-03T04:11:07.508Z,75.68
2018-06-03T04:13:35.418Z,75.29
2018-06-03T04:16:03.091Z,74.93
2018-06-03T04:18:30.758Z,74.12
2018-06-03T04:20:58.418Z,73.72
2018-06-03T04:23:26.083Z,73.60
2018-06-03T04:25:53.787Z,73.91
2018-06-03T04:28:21.518Z,73.30
2018-06-03T04:30:49.235Z,72.88
2018-06-03T04:33:16.994Z,72.87
2018-06-03T04:35:44.630Z,73.82
2018-06-03T04:38:12.307Z,73.68
2018-06-03T04:40:39.950Z,73.17
2018-06-03T04:43:07.590Z,73.03
2018-06-03T04:45:35.256Z,73.03
2018-06-03T04:48:02.913Z,72.32
2018-06-03T04:50:30.603Z,72.66
2018-06-03T04:52:58.355Z,72.28
2018-06-03T04:55:26.055Z,70.79
2018-06-03T04:57:53.798Z,70.46
2018-06-03T05:00:21.472Z,69.98
2018-06-03T05:02:49.366Z,69.23
2018-06-03T05:05:17.014Z,68.62
2018-06-03T05:07:44.707Z,68.31
2018-06-03T05:10:12.402Z,67.36
2018-06-03T05:12:40.138Z,67.68
2018-06-03T05:15:07.802Z,66.90
2018-06-03T05:17:35.477Z,66.01
2018-06-03T05:20:03.207Z,66.11
2018-06-03T05:22:30.862Z,65.74
2018-06-03T05:24:58.522Z,65.87
2018-06-03T05:27:26.299Z,66.08
2018-06-03T05:29:53.960Z,65.12
2018-06-03T05:32:21.620Z,65.59
2018-06-03T05:34:49.285Z,65.10
2018-06-03T05:37:16.975Z,65.02
2018-06-03T05:39:44.639Z,64.55
2018-06-03T05:42:12.319Z,63.90
2018-06-03T05:44:40.011Z,62.64
2018-06-03T05:47:07.663Z,62.18
2018-06-03T05:49:35.384Z,61.82
2018-06-03T05:52:03.136Z,61.61
2018-06-03T05:54:30.808Z,60.84
2018-06-03T05:56:58.474Z,60.97
2018-06-03T05:59:26.186Z,60.28
2018-06-03T06:01:53.855Z,59.80
2018-06-03T06:04:21.544Z,58.77
2018-06-03T06:06:49.263Z,59.02
2018-06-03T06:09:16.947Z,57.58
2018-06-03T06:11:44.634Z,57.33
2018-06-03T06:14:12.307Z,56.79
2018-06-03T06:16:39.954Z,56.37
2018-06-03T06:19:07.647Z,56.00
2018-06-03T06:21:35.342Z,55.74
2018-06-03T06:24:03.045Z,55.52
2018-06-03T06:26:30.820Z,55.22
2018-06-03T06:28:58.509Z,54.67
2018-06-03T06:31:26.279Z,54.38
2018-06-03T06:33:54.255Z,54.72
2018-06-03T06:36:21.950Z,54.55
2018-06-03T06:38:49.699Z,53.19
2018-06-03T06:41:17.761Z,52.62
2018-06-03T06:43:45.785Z,52.00
2018-06-03T06:46:13.526Z,51.03
2018-06-03T06:48:41.215Z,50.54
2018-06-03T06:51:08.879Z,49.58
2018-06-03T06:53:36.878Z,48.59
2018-06-03T06:56:04.591Z,46.99
2018-06-03T06:58:32.260Z,46.80
2018-06-03T07:00:59.919Z,46.67
2018-06-03T07:03:27.621Z,45.96
2018-06-03T07:05:55.598Z,44.50
2018-06-03T07:08:23.275Z,43.48
2018-06-03T07:10:50.922Z,43.43
2018-06-03T07:13:18.874Z,43.92
2018-06-03T07:15:46.571Z,43.71
2018-06-03T07:18:14.232Z,43.60
2018-06-03T07:20:41.943Z,43.03
2018-06-03T07:23:09.627Z,42.95
2018-06-03T07:25:37.319Z,41.34
2018-06-03T07:28:05.029Z,41.24
2018-06-03T07:30:32.701Z,39.50
2018-06-03T07:33:00.614Z,39.86
2018-06-03T07:35:28.267Z,40.15
2018-06-03T07:37:55.984Z,39.61
2018-06-03T07:40:23.684Z,38.82
2018-06-03T07:42:51.656Z,38.27
2018-06-03T07:45:19.355Z,38.78
2018-06-03T07:47:47.080Z,37.86
2018-06-03T07:50:14.821Z,36.88
2018-06-03T07:52:42.576Z,37.56
2018-06-03T07:55:10.294Z,37.66
2018-06-03T07:57:38.016Z,36.38
2018-06-03T08:00:05.755Z,35.73
2018-06-03T08:02:33.515Z,35.82
2018-06-03T08:05:01.183Z,35.01
2018-06-03T08:07:29.130Z,34.17
2018-06-03T08:09:56.815Z,35.08
2018-06-03T08:12:24.519Z,33.39
2018-06-03T08:14:52.252Z,32.88
2018-06-03T08:17:20.028Z,33.93
2018-06-03T08:19:47.727Z,32.61
2018-06-03T08:22:15.459Z,34.29
2018-06-03T08:24:43.142Z,33.18
2018-06-03T08:27:10.867Z,32.54
2018-06-03T08:29:38.554Z,32.49
2018-06-03T08:32:06.259Z,33.92
2018-06-03T08:34:33.995Z,34.12
2018-06-03T08:37:01.690Z,34.91
2018-06-03T08:39:29.406Z,34.77
2018-06-03T08:41:57.070Z,33.90
2018-06-03T08:44:24.795Z,33.51
2018-06-03T08:46:52.633Z,35.96
2018-06-03T08:49:20.408Z,36.25
2018-06-03T08:51:48.137Z,35.39
2018-06-03T08:54:15.892Z,34.88
2018-06-03T08:56:43.614Z,34.42
2018-06-03T08:59:11.319Z,33.03
2018-06-03T09:01:39.000Z,33.91
2018-06-03T09:04:06.699Z,35.43
2018-06-03T09:06:34.416Z,36.37
2018-06-03T09:09:02.204Z,36.18
2018-06-03T09:11:29.937Z,34.86
2018-06-03T09:13:57.724Z,35.62
2018-06-03T09:16:25.463Z,36.77
2018-06-03T09:18:53.246Z,37.77
2018-06-03T09:21:20.951Z,38.60
2018-06-03T09:23:48.648Z,37.43
2018-06-03T09:26:16.365Z,36.49
2018-06-03T09:28:44.064Z,35.53
2018-06-03T09:31:11.796Z,34.85
2018-06-03T09:33:39.532Z,33.85
2018-06-03T09:36:07.266Z,33.54
2018-06-03T09:38:34.975Z,32.41
2018-06-03T09:41:02.661Z,32.86
2018-06-03T09:43:30.396Z,32.11
2018-06-03T09:45:58.112Z,33.79
2018-06-03T09:48:25.831Z,35.59
2018-06-03T09:50:53.588Z,34.72
2018-06-03T09:53:21.361Z,35.13
2018-06-03T09:55:49.044Z,34.04
2018-06-03T09:58:16.779Z,34.60
2018-06-03T10:00:44.489Z,34.79
2018-06-03T10:03:12.199Z,34.33
2018-06-03T10:05:40.103Z,34.27
2018-06-03T10:08:07.773Z,32.55
2018-06-03T10:10:35.491Z,32.54
2018-06-03T10:13:03.202Z,34.29
2018-06-03T10:15:30.929Z,35.46
2018-06-03T10:17:58.658Z,36.42
2018-06-03T10:20:26.402Z,36.94
2018-06-03T10:22:54.104Z,36.14
2018-06-03T10:25:21.797Z,35.53
2018-06-03T10:27:49.497Z,33.61
2018-06-03T10:30:17.260Z,32.06
2018-06-03T10:32:45.067Z,31.45
2018-06-03T10:35:13.752Z,30.43
2018-06-03T10:37:41.485Z,30.62
2018-06-03T10:40:09.195Z,30.10
2018-06-03T10:42:36.936Z,30.15
2018-06-03T10:45:04.743Z,31.01
2018-06-03T10:47:32.464Z,31.61
2018-06-03T10:50:00.151Z,31.55
2018-06-03T10:52:27.867Z,32.45
2018-06-03T10:54:55.594Z,32.76
2018-06-03T10:57:23.263Z,32.64
2018-06-03T10:59:51.044Z,35.13
2018-06-03T11:02:18.859Z,34.30
2018-06-03T11:04:46.541Z,35.12
2018-06-03T11:07:14.234Z,34.00
2018-06-03T11:09:41.919Z,33.99
2018-06-03T11:12:09.694Z,34.06
2018-06-03T11:14:37.346Z,35.73
2018-06-03T11:17:05.084Z,34.12
2018-06-03T11:19:32.801Z,36.46
2018-06-03T11:22:00.604Z,36.63
2018-06-03T11:24:28.303Z,37.07
2018-06-03T11:26:56.003Z,35.42
2018-06-03T11:29:23.772Z,35.03
2018-06-03T11:31:51.524Z,35.70
2018-06-03T11:34:19.191Z,35.95
2018-06-03T11:36:46.968Z,35.70
2018-06-03T11:39:14.711Z,35.83
2018-06-03T11:41:42.387Z,36.51
2018-06-03T11:44:10.158Z,35.40
2018-06-03T11:46:37.839Z,36.30
2018-06-03T11:49:05.536Z,36.28
2018-06-03T11:51:33.238Z,35.12
2018-06-03T11:54:00.929Z,35.91
2018-06-03T11:56:34.288Z,35.61
2018-06-03T11:59:07.576Z,35.94
2018-06-03T12:01:35.299Z,36.58
2018-06-03T12:04:03.003Z,37.02
2018-06-03T12:06:30.719Z,37.00
2018-06-03T12:08:58.446Z,36.99
2018-06-03T12:11:26.150Z,38.24
2018-06-03T12:13:53.847Z,38.40
2018-06-03T12:16:21.679Z,38.13
2018-06-03T12:18:49.380Z,37.55
2018-06-03T12:21:17.092Z,38.55
2018-06-03T12:23:44.788Z,38.95
2018-06-03T12:26:12.470Z,38.66
2018-06-03T12:28:40.200Z,38.42
2018-06-03T12:31:07.854Z,38.74
2018-06-03T12:33:35.539Z,39.30
2018-06-03T12:36:03.304Z,40.33
2018-06-03T12:38:30.915Z,39.01
2018-06-03T12:40:58.631Z,38.46
2018-06-03T12:43:26.397Z,39.28
2018-06-03T12:45:54.180Z,38.64
2018-06-03T12:48:21.888Z,39.20
2018-06-03T12:50:49.599Z,38.49
2018-06-03T12:53:17.394Z,37.48
2018-06-03T12:55:45.114Z,38.66
2018-06-03T12:58:12.783Z,39.85
2018-06-03T13:00:40.499Z,39.08
2018-06-03T13:03:08.227Z,39.68
2018-06-03T13:05:35.990Z,39.25
2018-06-03T13:08:03.767Z,39.84
2018-06-03T13:10:31.493Z,41.97
2018-06-03T13:13:02.727Z,41.41
2018-06-03T13:15:30.453Z,40.72
2018-06-03T13:17:58.139Z,40.99
2018-06-03T13:20:25.982Z,39.89
2018-06-03T13:22:53.683Z,41.15
2018-06-03T13:25:21.409Z,40.35
2018-06-03T13:27:49.119Z,40.45
2018-06-03T13:30:16.824Z,40.16
2018-06-03T13:32:44.543Z,41.17
2018-06-03T13:35:12.260Z,40.17
2018-06-03T13:37:40.734Z,40.82
2018-06-03T13:40:08.457Z,42.01
2018-06-03T13:42:36.187Z,41.38
2018-06-03T13:45:03.907Z,40.86
2018-06-03T13:47:31.610Z,41.53
2018-06-03T13:49:59.294Z,41.49
2018-06-03T13:52:26.979Z,39.19
2018-06-03T13:54:54.732Z,40.81
2018-06-03T13:57:22.488Z,41.41
2018-06-03T13:59:50.226Z,40.55
2018-06-03T14:02:17.911Z,40.01
2018-06-03T14:04:45.583Z,40.33
2018-06-03T14:07:13.275Z,40.93
2018-06-03T14:09:40.965Z,40.84
2018-06-03T14:12:08.696Z,40.85
2018-06-03T14:14:36.419Z,40.79
2018-06-03T14:17:04.151Z,41.58
2018-06-03T14:19:31.925Z,42.33
2018-06-03T14:21:59.508Z,42.51
2018-06-03T14:24:27.148Z,41.81
2018-06-03T14:26:54.811Z,41.94
2018-06-03T14:29:22.492Z,41.92
2018-06-03T14:31:50.234Z,43.30
2018-06-03T14:34:17.895Z,42.43
2018-06-03T14:36:45.610Z,41.57
2018-06-03T14:39:13.290Z,42.43
2018-06-03T14:41:40.952Z,42.53
2018-06-03T14:44:08.652Z,42.11
2018-06-03T14:46:36.323Z,42.63
2018-06-03T14:49:04.035Z,42.59
2018-06-03T14:51:31.662Z,42.26
2018-06-03T14:53:59.407Z,43.53
2018-06-03T14:56:27.092Z,43.14
2018-06-03T14:58:54.754Z,43.78
2018-06-03T15:01:22.449Z,42.34
2018-06-03T15:03:50.169Z,42.67
2018-06-03T15:06:17.912Z,42.39
2018-06-03T15:08:45.581Z,42.16
2018-06-03T15:11:13.304Z,42.47
2018-06-03T15:13:40.994Z,42.99
2018-06-03T15:16:08.642Z,41.38
2018-06-03T15:18:36.339Z,42.92
2018-06-03T15:21:04.081Z,42.78
2018-06-03T15:23:31.873Z,43.41
2018-06-03T15:25:59.568Z,42.14
2018-06-03T15:28:27.249Z,42.74
2018-06-03T15:30:55.004Z,43.82
2018-06-03T15:33:22.702Z,44.44
2018-06-03T15:35:50.455Z,41.92
2018-06-03T15:38:18.145Z,43.19
2018-06-03T15:40:45.921Z,42.89
2018-06-03T15:43:13.626Z,40.75
2018-06-03T15:45:41.289Z,38.83
2018-06-03T15:48:08.942Z,39.08
2018-06-03T15:50:36.651Z,38.88
2018-06-03T15:53:04.291Z,41.26
2018-06-03T15:55:31.997Z,41.99
2018-06-03T15:57:59.688Z,42.48
2018-06-03T16:00:27.354Z,42.44
2018-06-03T16:02:55.119Z,42.84
2018-06-03T16:05:22.802Z,44.02
2018-06-03T16:07:50.509Z,44.58
2018-06-03T16:10:18.190Z,45.26
2018-06-03T16:12:45.891Z,44.57
2018-06-03T16:15:13.554Z,43.40
2018-06-03T16:17:41.188Z,40.92
2018-06-03T16:20:09.071Z,40.38
2018-06-03T16:22:36.825Z,40.57
2018-06-03T16:25:04.478Z,41.01
2018-06-03T16:27:32.119Z,39.78
2018-06-03T16:29:59.822Z,39.60
2018-06-03T16:32:27.452Z,38.67
2018-06-03T16:34:55.163Z,39.04
2018-06-03T16:37:22.890Z,40.48
2018-06-03T16:39:50.663Z,42.00
2018-06-03T16:42:18.523Z,41.97
2018-06-03T16:44:46.264Z,42.27
2018-06-03T16:47:13.904Z,42.74
2018-06-03T16:49:41.637Z,43.60
2018-06-03T16:52:09.297Z,44.74
2018-06-03T16:54:37.079Z,42.36
2018-06-03T16:57:04.755Z,41.81
2018-06-03T16:59:32.643Z,41.65
2018-06-03T17:02:00.431Z,42.47
2018-06-03T17:04:28.135Z,42.63
2018-06-03T17:06:55.974Z,43.04
2018-06-03T17:09:23.646Z,42.51
2018-06-03T17:11:51.389Z,43.64
2018-06-03T17:14:19.076Z,44.82
2018-06-03T17:16:46.743Z,45.59
2018-06-03T17:19:14.458Z,45.73
2018-06-03T17:21:42.150Z,45.58
2018-06-03T17:24:09.832Z,45.40
2018-06-03T17:26:37.503Z,45.58
2018-06-03T17:29:05.173Z,45.77
2018-06-03T17:31:32.846Z,45.80
2018-06-03T17:34:00.498Z,44.77
2018-06-03T17:36:28.160Z,44.95
2018-06-03T17:38:55.813Z,45.28
2018-06-03T17:41:23.488Z,45.52
2018-06-03T17:43:51.183Z,45.14
2018-06-03T17:46:18.878Z,45.17
2018-06-03T17:48:46.535Z,45.28
2018-06-03T17:51:14.179Z,45.32
2018-06-03T17:53:42.086Z,45.31
2018-06-03T17:56:09.801Z,44.96
2018-06-03T17:58:37.517Z,44.78
2018-06-03T18:01:05.232Z,45.02
2018-06-03T18:03:32.918Z,45.94
2018-06-03T18:06:00.564Z,45.30
2018-06-03T18:08:28.249Z,45.41
2018-06-03T18:10:55.923Z,45.73
2018-06-03T18:13:23.718Z,45.61
2018-06-03T18:15:51.441Z,46.49
2018-06-03T18:18:19.140Z,46.54
2018-06-03T18:20:46.871Z,46.71
2018-06-03T18:23:14.536Z,47.30
2018-06-03T18:25:42.198Z,46.79
2018-06-03T18:28:09.843Z,47.21
2018-06-03T18:30:37.549Z,47.82
2018-06-03T18:33:05.230Z,47.67
2018-06-03T18:35:32.883Z,47.40
2018-06-03T18:38:00.659Z,47.21
2018-06-03T18:40:28.343Z,47.90
2018-06-03T18:42:56.051Z,47.92
2018-06-03T18:45:23.935Z,47.99
2018-06-03T18:47:51.598Z,47.74
2018-06-03T18:50:19.271Z,48.46
2018-06-03T18:52:46.988Z,48.92
2018-06-03T18:55:14.664Z,49.59
2018-06-03T18:57:42.369Z,49.55
2018-06-03T19:00:10.063Z,49.06
2018-06-03T19:02:37.701Z,50.46
2018-06-03T19:05:05.542Z,50.15
2018-06-03T19:07:33.226Z,49.93
2018-06-03T19:10:00.888Z,49.80
2018-06-03T19:12:28.674Z,50.06
2018-06-03T19:14:56.330Z,50.10
2018-06-03T19:17:24.031Z,50.57
2018-06-03T19:19:51.695Z,49.95
2018-06-03T19:22:19.379Z,50.04
2018-06-03T19:24:47.033Z,50.51
2018-06-03T19:27:14.748Z,50.51
2018-06-03T19:29:42.386Z,51.01
2018-06-03T19:32:10.078Z,50.78
2018-06-03T19:34:37.707Z,51.38
2018-06-03T19:37:05.365Z,50.61
2018-06-03T19:39:33.056Z,50.01
2018-06-03T19:42:00.705Z,50.75
2018-06-03T19:44:28.400Z,50.93
2018-06-03T19:46:56.069Z,50.78
2018-06-03T19:49:23.752Z,52.04
2018-06-03T19:51:51.460Z,52.36
2018-06-03T19:54:19.090Z,52.77
2018-06-03T19:56:46.768Z,53.52
2018-06-03T19:59:14.389Z,54.46
2018-06-03T20:01:42.066Z,53.62
2018-06-03T20:04:09.897Z,53.91
2018-06-03T20:06:37.591Z,54.31
2018-06-03T20:09:06.798Z,54.48
2018-06-03T20:11:34.520Z,54.43
2018-06-03T20:14:02.188Z,54.72
2018-06-03T20:16:30.291Z,54.32
2018-06-03T20:18:58.108Z,54.70
2018-06-03T20:21:25.824Z,54.09
2018-06-03T20:23:53.547Z,54.55
2018-06-03T20:26:21.215Z,54.34
2018-06-03T20:28:48.880Z,53.32
2018-06-03T20:31:16.563Z,53.55
2018-06-03T20:33:44.260Z,53.37
2018-06-03T20:36:11.983Z,54.09
2018-06-03T20:38:39.635Z,55.08
2018-06-03T20:41:07.308Z,55.32
2018-06-03T20:43:34.935Z,54.64
2018-06-03T20:46:02.587Z,54.87
2018-06-03T20:48:30.231Z,55.69
2018-06-03T20:50:57.887Z,55.93
2018-06-03T20:53:25.523Z,56.50
2018-06-03T20:55:53.174Z,55.36
2018-06-03T20:58:20.790Z,55.05
2018-06-03T21:00:48.485Z,55.88
2018-06-03T21:03:16.127Z,55.85
2018-06-03T21:05:43.763Z,55.86
2018-06-03T21:08:11.406Z,55.77
2018-06-03T21:10:39.027Z,56.63
2018-06-03T21:13:06.647Z,56.66
2018-06-03T21:15:34.307Z,56.42
2018-06-03T21:18:01.956Z,56.46
2018-06-03T21:20:29.602Z,57.25
2018-06-03T21:22:57.272Z,57.05
2018-06-03T21:25:24.991Z,56.80
2018-06-03T21:27:52.639Z,56.71
2018-06-03T21:30:20.270Z,57.25
2018-06-03T21:32:47.911Z,56.79
2018-06-03T21:35:15.532Z,57.41
2018-06-03T21:37:43.148Z,57.52
2018-06-03T21:40:10.851Z,57.75
2018-06-03T21:42:38.486Z,58.17
2018-06-03T21:45:06.168Z,58.45
2018-06-03T21:47:33.789Z,58.12
2018-06-03T21:50:01.508Z,58.55
2018-06-03T21:52:29.299Z,58.92
2018-06-03T21:54:56.923Z,58.62
2018-06-03T21:57:24.618Z,58.07
2018-06-03T21:59:52.236Z,58.46
2018-06-03T22:02:19.902Z,59.41
2018-06-03T22:04:47.559Z,59.70
2018-06-03T22:07:15.199Z,60.81
2018-06-03T22:09:42.905Z,61.17
2018-06-03T22:12:10.547Z,61.18
2018-06-03T22:14:38.156Z,61.50
2018-06-03T22:17:05.830Z,61.98
2018-06-03T22:19:33.585Z,62.01
2018-06-03T22:22:01.238Z,61.71
2018-06-03T22:24:28.934Z,61.49
2018-06-03T22:26:56.657Z,60.57
2018-06-03T22:29:24.311Z,60.96
2018-06-03T22:31:51.979Z,60.47
2018-06-03T22:34:19.631Z,60.46
2018-06-03T22:36:47.242Z,61.03
2018-06-03T22:39:14.888Z,60.82
2018-06-03T22:41:42.557Z,61.33
2018-06-03T22:44:10.231Z,60.84
2018-06-03T22:46:37.915Z,61.32
2018-06-03T22:49:05.731Z,61.39
2018-06-03T22:51:33.393Z,61.76
2018-06-03T22:54:01.042Z,62.08
2018-06-03T22:56:34.321Z,61.65
2018-06-03T22:59:01.993Z,61.45
2018-06-03T23:01:29.692Z,61.76
2018-06-03T23:03:57.354Z,62.36
2018-06-03T23:06:25.075Z,62.90
2018-06-03T23:08:52.763Z,62.70
2018-06-03T23:11:20.471Z,63.26
2018-06-03T23:13:48.172Z,62.59
2018-06-03T23:16:15.890Z,62.87
2018-06-03T23:18:43.532Z,62.63
2018-06-03T23:21:11.198Z,61.86
2018-06-03T23:23:38.858Z,62.94
2018-06-03T23:26:06.554Z,63.08
2018-06-03T23:28:34.263Z,62.97
2018-06-03T23:31:01.976Z,62.54
2018-06-03T23:33:29.659Z,62.20
2018-06-03T23:35:57.329Z,62.11
2018-06-03T23:38:25.074Z,62.01
2018-06-03T23:40:52.793Z,62.38
2018-06-03T23:43:20.458Z,62.15
2018-06-03T23:45:48.184Z,62.08
2018-06-03T23:48:15.895Z,61.44
2018-06-03T23:50:43.552Z,61.90
2018-06-03T23:53:11.264Z,62.42
2018-06-03T23:55:38.916Z,62.93
2018-06-03T23:58:06.599Z,62.80
